sensor_id;sensor_type;location;lat;lon;timestamp;P1;durP1;ratioP1;P2;durP2;ratioP2
35675;SDS011;21790;42.668;23.298;2022-07-23T00:00:13;8.45;;;4.63;;
35675;SDS011;21790;42.668;23.298;2022-07-23T00:02:40;9.75;;;5.07;;
35675;SDS011;21790;42.668;23.298;2022-07-23T00:05:06;10.45;;;4.75;;
35675;SDS011;21790;42.668;23.298;2022-07-23T00:07:31;8.95;;;4.50;;
35675;SDS011;21790;42.668;23.298;2022-07-23T00:09:57;6.90;;;4.50;;
35675;SDS011;21790;42.668;23.298;2022-07-23T00:12:23;8.80;;;3.97;;
35675;SDS011;21790;42.668;23.298;2022-07-23T00:14:48;12.80;;;4.75;;
35675;SDS011;21790;42.668;23.298;2022-07-23T00:17:14;12.18;;;4.88;;
35675;SDS011;21790;42.668;23.298;2022-07-23T00:19:39;8.55;;;4.47;;
35675;SDS011;21790;42.668;23.298;2022-07-23T00:22:05;8.35;;;5.20;;
35675;SDS011;21790;42.668;23.298;2022-07-23T00:24:32;10.80;;;4.60;;
35675;SDS011;21790;42.668;23.298;2022-07-23T00:26:57;13.57;;;4.63;;
35675;SDS011;21790;42.668;23.298;2022-07-23T00:29:24;11.70;;;4.80;;
35675;SDS011;21790;42.668;23.298;2022-07-23T00:31:49;10.90;;;5.10;;
35675;SDS011;21790;42.668;23.298;2022-07-23T00:34:17;10.43;;;4.82;;
35675;SDS011;21790;42.668;23.298;2022-07-23T00:36:43;8.52;;;4.63;;
35675;SDS011;21790;42.668;23.298;2022-07-23T00:39:09;18.42;;;4.90;;
35675;SDS011;21790;42.668;23.298;2022-07-23T00:41:35;9.38;;;5.20;;
35675;SDS011;21790;42.668;23.298;2022-07-23T00:44:42;7.85;;;4.32;;
35675;SDS011;21790;42.668;23.298;2022-07-23T00:46:51;11.10;;;4.10;;
35675;SDS011;21790;42.668;23.298;2022-07-23T00:49:25;7.28;;;4.20;;
35675;SDS011;21790;42.668;23.298;2022-07-23T00:51:53;8.15;;;4.75;;
35675;SDS011;21790;42.668;23.298;2022-07-23T00:54:22;13.90;;;4.60;;
35675;SDS011;21790;42.668;23.298;2022-07-23T00:56:48;11.05;;;5.20;;
35675;SDS011;21790;42.668;23.298;2022-07-23T00:59:16;11.05;;;4.30;;
35675;SDS011;21790;42.668;23.298;2022-07-23T01:01:42;7.00;;;4.22;;
35675;SDS011;21790;42.668;23.298;2022-07-23T01:04:15;7.90;;;4.53;;
35675;SDS011;21790;42.668;23.298;2022-07-23T01:06:41;9.68;;;4.80;;
35675;SDS011;21790;42.668;23.298;2022-07-23T01:09:10;9.13;;;4.13;;
35675;SDS011;21790;42.668;23.298;2022-07-23T01:11:36;8.82;;;4.85;;
35675;SDS011;21790;42.668;23.298;2022-07-23T01:16:55;9.20;;;4.97;;
35675;SDS011;21790;42.668;23.298;2022-07-23T01:19:20;10.32;;;4.75;;
35675;SDS011;21790;42.668;23.298;2022-07-23T01:21:47;13.43;;;5.43;;
35675;SDS011;21790;42.668;23.298;2022-07-23T01:24:15;11.85;;;5.28;;
35675;SDS011;21790;42.668;23.298;2022-07-23T01:26:42;9.95;;;4.32;;
35675;SDS011;21790;42.668;23.298;2022-07-23T01:29:09;7.80;;;4.70;;
35675;SDS011;21790;42.668;23.298;2022-07-23T01:31:35;8.20;;;4.53;;
35675;SDS011;21790;42.668;23.298;2022-07-23T01:34:00;12.10;;;4.93;;
35675;SDS011;21790;42.668;23.298;2022-07-23T01:36:26;12.38;;;4.88;;
35675;SDS011;21790;42.668;23.298;2022-07-23T01:38:52;15.05;;;4.93;;
35675;SDS011;21790;42.668;23.298;2022-07-23T01:41:17;7.28;;;4.95;;
35675;SDS011;21790;42.668;23.298;2022-07-23T01:43:43;10.95;;;4.93;;
35675;SDS011;21790;42.668;23.298;2022-07-23T01:46:08;8.00;;;4.45;;
35675;SDS011;21790;42.668;23.298;2022-07-23T01:48:34;9.50;;;4.63;;
35675;SDS011;21790;42.668;23.298;2022-07-23T01:51:00;7.97;;;4.88;;
35675;SDS011;21790;42.668;23.298;2022-07-23T01:53:25;11.07;;;5.03;;
35675;SDS011;21790;42.668;23.298;2022-07-23T01:55:51;6.93;;;4.93;;
35675;SDS011;21790;42.668;23.298;2022-07-23T01:58:17;10.38;;;4.68;;
35675;SDS011;21790;42.668;23.298;2022-07-23T02:00:44;10.73;;;4.82;;
35675;SDS011;21790;42.668;23.298;2022-07-23T02:03:10;14.82;;;4.82;;
35675;SDS011;21790;42.668;23.298;2022-07-23T02:05:36;9.32;;;5.47;;
35675;SDS011;21790;42.668;23.298;2022-07-23T02:08:02;9.05;;;5.38;;
35675;SDS011;21790;42.668;23.298;2022-07-23T02:10:27;14.13;;;5.68;;
35675;SDS011;21790;42.668;23.298;2022-07-23T02:12:53;8.45;;;4.95;;
35675;SDS011;21790;42.668;23.298;2022-07-23T02:15:19;10.45;;;4.85;;
35675;SDS011;21790;42.668;23.298;2022-07-23T02:17:45;9.57;;;4.97;;
35675;SDS011;21790;42.668;23.298;2022-07-23T02:20:12;9.00;;;5.18;;
35675;SDS011;21790;42.668;23.298;2022-07-23T02:22:38;11.45;;;4.78;;
35675;SDS011;21790;42.668;23.298;2022-07-23T02:25:04;8.88;;;5.30;;
35675;SDS011;21790;42.668;23.298;2022-07-23T02:27:31;7.55;;;4.68;;
35675;SDS011;21790;42.668;23.298;2022-07-23T02:29:56;10.68;;;4.93;;
35675;SDS011;21790;42.668;23.298;2022-07-23T02:32:22;9.38;;;4.82;;
35675;SDS011;21790;42.668;23.298;2022-07-23T02:34:48;7.10;;;4.55;;
35675;SDS011;21790;42.668;23.298;2022-07-23T02:37:14;10.25;;;5.10;;
35675;SDS011;21790;42.668;23.298;2022-07-23T02:39:40;13.25;;;5.47;;
35675;SDS011;21790;42.668;23.298;2022-07-23T02:42:06;9.32;;;4.85;;
35675;SDS011;21790;42.668;23.298;2022-07-23T02:44:32;12.25;;;5.65;;
35675;SDS011;21790;42.668;23.298;2022-07-23T02:46:59;11.27;;;5.97;;
35675;SDS011;21790;42.668;23.298;2022-07-23T02:49:25;11.88;;;5.50;;
35675;SDS011;21790;42.668;23.298;2022-07-23T02:51:50;7.60;;;5.35;;
35675;SDS011;21790;42.668;23.298;2022-07-23T02:54:16;9.65;;;5.20;;
35675;SDS011;21790;42.668;23.298;2022-07-23T02:56:42;10.40;;;4.80;;
35675;SDS011;21790;42.668;23.298;2022-07-23T02:59:09;8.10;;;5.38;;
35675;SDS011;21790;42.668;23.298;2022-07-23T03:01:36;9.80;;;5.47;;
35675;SDS011;21790;42.668;23.298;2022-07-23T03:04:01;13.48;;;5.30;;
35675;SDS011;21790;42.668;23.298;2022-07-23T03:06:27;11.80;;;5.13;;
35675;SDS011;21790;42.668;23.298;2022-07-23T03:08:53;8.65;;;5.45;;
35675;SDS011;21790;42.668;23.298;2022-07-23T03:11:18;12.05;;;5.95;;
35675;SDS011;21790;42.668;23.298;2022-07-23T03:13:45;8.60;;;5.45;;
35675;SDS011;21790;42.668;23.298;2022-07-23T03:16:13;10.57;;;5.30;;
35675;SDS011;21790;42.668;23.298;2022-07-23T03:18:38;11.00;;;5.28;;
35675;SDS011;21790;42.668;23.298;2022-07-23T03:21:05;9.98;;;5.38;;
35675;SDS011;21790;42.668;23.298;2022-07-23T03:23:31;11.77;;;5.85;;
35675;SDS011;21790;42.668;23.298;2022-07-23T03:25:56;11.18;;;5.65;;
35675;SDS011;21790;42.668;23.298;2022-07-23T03:28:22;20.98;;;5.85;;
35675;SDS011;21790;42.668;23.298;2022-07-23T03:30:47;12.90;;;5.78;;
35675;SDS011;21790;42.668;23.298;2022-07-23T03:33:16;11.32;;;5.65;;
35675;SDS011;21790;42.668;23.298;2022-07-23T03:35:43;20.23;;;6.35;;
35675;SDS011;21790;42.668;23.298;2022-07-23T03:38:09;11.23;;;5.20;;
35675;SDS011;21790;42.668;23.298;2022-07-23T03:40:35;9.88;;;5.53;;
35675;SDS011;21790;42.668;23.298;2022-07-23T03:43:00;9.82;;;6.35;;
35675;SDS011;21790;42.668;23.298;2022-07-23T03:45:26;9.07;;;5.82;;
35675;SDS011;21790;42.668;23.298;2022-07-23T03:47:54;17.63;;;6.10;;
35675;SDS011;21790;42.668;23.298;2022-07-23T03:53:41;10.38;;;5.60;;
35675;SDS011;21790;42.668;23.298;2022-07-23T03:56:08;9.30;;;5.63;;
35675;SDS011;21790;42.668;23.298;2022-07-23T03:58:35;8.77;;;5.43;;
35675;SDS011;21790;42.668;23.298;2022-07-23T04:01:00;11.88;;;5.70;;
35675;SDS011;21790;42.668;23.298;2022-07-23T04:03:26;10.57;;;5.07;;
35675;SDS011;21790;42.668;23.298;2022-07-23T04:05:52;9.32;;;5.10;;
35675;SDS011;21790;42.668;23.298;2022-07-23T04:08:19;12.00;;;5.53;;
35675;SDS011;21790;42.668;23.298;2022-07-23T04:10:47;13.05;;;5.45;;
35675;SDS011;21790;42.668;23.298;2022-07-23T04:13:12;13.15;;;5.75;;
35675;SDS011;21790;42.668;23.298;2022-07-23T04:15:38;14.05;;;6.13;;
35675;SDS011;21790;42.668;23.298;2022-07-23T04:18:04;12.55;;;5.65;;
35675;SDS011;21790;42.668;23.298;2022-07-23T04:20:29;13.95;;;6.28;;
35675;SDS011;21790;42.668;23.298;2022-07-23T04:22:55;12.70;;;5.88;;
35675;SDS011;21790;42.668;23.298;2022-07-23T04:25:20;13.05;;;5.47;;
35675;SDS011;21790;42.668;23.298;2022-07-23T04:27:45;13.02;;;5.68;;
35675;SDS011;21790;42.668;23.298;2022-07-23T04:30:11;11.85;;;6.22;;
35675;SDS011;21790;42.668;23.298;2022-07-23T04:32:36;12.50;;;5.95;;
35675;SDS011;21790;42.668;23.298;2022-07-23T04:35:02;12.25;;;6.85;;
35675;SDS011;21790;42.668;23.298;2022-07-23T04:37:45;15.15;;;6.50;;
35675;SDS011;21790;42.668;23.298;2022-07-23T04:40:10;12.05;;;6.90;;
35675;SDS011;21790;42.668;23.298;2022-07-23T04:42:37;14.43;;;7.00;;
35675;SDS011;21790;42.668;23.298;2022-07-23T04:45:03;14.38;;;6.38;;
35675;SDS011;21790;42.668;23.298;2022-07-23T04:47:30;13.80;;;6.43;;
35675;SDS011;21790;42.668;23.298;2022-07-23T04:49:57;13.75;;;6.60;;
35675;SDS011;21790;42.668;23.298;2022-07-23T04:52:22;12.70;;;6.30;;
35675;SDS011;21790;42.668;23.298;2022-07-23T04:54:48;10.60;;;6.30;;
35675;SDS011;21790;42.668;23.298;2022-07-23T04:57:14;12.68;;;6.13;;
35675;SDS011;21790;42.668;23.298;2022-07-23T04:59:42;17.02;;;5.43;;
35675;SDS011;21790;42.668;23.298;2022-07-23T05:02:07;13.18;;;5.22;;
35675;SDS011;21790;42.668;23.298;2022-07-23T05:04:33;11.73;;;5.68;;
35675;SDS011;21790;42.668;23.298;2022-07-23T05:06:59;9.98;;;5.15;;
35675;SDS011;21790;42.668;23.298;2022-07-23T05:09:26;11.75;;;6.05;;
35675;SDS011;21790;42.668;23.298;2022-07-23T05:11:52;11.25;;;5.20;;
35675;SDS011;21790;42.668;23.298;2022-07-23T05:14:18;11.60;;;5.97;;
35675;SDS011;21790;42.668;23.298;2022-07-23T05:16:44;9.25;;;5.90;;
35675;SDS011;21790;42.668;23.298;2022-07-23T05:19:10;13.00;;;5.75;;
35675;SDS011;21790;42.668;23.298;2022-07-23T05:21:35;12.75;;;5.78;;
35675;SDS011;21790;42.668;23.298;2022-07-23T05:24:01;8.32;;;5.18;;
35675;SDS011;21790;42.668;23.298;2022-07-23T05:26:27;9.93;;;5.10;;
35675;SDS011;21790;42.668;23.298;2022-07-23T05:36:53;9.07;;;6.45;;
35675;SDS011;21790;42.668;23.298;2022-07-23T05:39:19;12.70;;;6.45;;
35675;SDS011;21790;42.668;23.298;2022-07-23T05:41:45;14.73;;;6.82;;
35675;SDS011;21790;42.668;23.298;2022-07-23T05:44:18;12.43;;;6.50;;
35675;SDS011;21790;42.668;23.298;2022-07-23T05:46:43;12.13;;;6.03;;
35675;SDS011;21790;42.668;23.298;2022-07-23T05:49:09;14.02;;;6.53;;
35675;SDS011;21790;42.668;23.298;2022-07-23T05:51:35;15.63;;;6.65;;
35675;SDS011;21790;42.668;23.298;2022-07-23T05:54:02;12.65;;;6.22;;
35675;SDS011;21790;42.668;23.298;2022-07-23T05:56:27;17.88;;;5.32;;
35675;SDS011;21790;42.668;23.298;2022-07-23T05:58:53;8.38;;;5.55;;
35675;SDS011;21790;42.668;23.298;2022-07-23T06:01:20;10.02;;;6.82;;
35675;SDS011;21790;42.668;23.298;2022-07-23T06:06:17;10.25;;;6.15;;
35675;SDS011;21790;42.668;23.298;2022-07-23T06:08:43;11.70;;;6.35;;
35675;SDS011;21790;42.668;23.298;2022-07-23T06:13:44;14.60;;;6.63;;
35675;SDS011;21790;42.668;23.298;2022-07-23T06:16:09;10.68;;;6.30;;
35675;SDS011;21790;42.668;23.298;2022-07-23T06:18:35;11.52;;;5.93;;
35675;SDS011;21790;42.668;23.298;2022-07-23T06:21:01;11.18;;;5.80;;
35675;SDS011;21790;42.668;23.298;2022-07-23T06:25:57;10.23;;;5.70;;
35675;SDS011;21790;42.668;23.298;2022-07-23T06:30:51;13.98;;;5.80;;
35675;SDS011;21790;42.668;23.298;2022-07-23T06:33:16;13.00;;;6.50;;
35675;SDS011;21790;42.668;23.298;2022-07-23T06:35:43;16.10;;;5.40;;
35675;SDS011;21790;42.668;23.298;2022-07-23T06:38:10;17.23;;;6.80;;
35675;SDS011;21790;42.668;23.298;2022-07-23T06:40:37;13.95;;;5.70;;
35675;SDS011;21790;42.668;23.298;2022-07-23T06:43:02;12.77;;;5.82;;
35675;SDS011;21790;42.668;23.298;2022-07-23T06:45:28;11.60;;;5.47;;
35675;SDS011;21790;42.668;23.298;2022-07-23T06:47:54;7.57;;;4.85;;
35675;SDS011;21790;42.668;23.298;2022-07-23T06:50:19;11.38;;;5.63;;
35675;SDS011;21790;42.668;23.298;2022-07-23T06:52:46;15.60;;;6.32;;
35675;SDS011;21790;42.668;23.298;2022-07-23T06:55:11;14.13;;;5.97;;
35675;SDS011;21790;42.668;23.298;2022-07-23T06:57:42;15.43;;;6.07;;
35675;SDS011;21790;42.668;23.298;2022-07-23T07:00:07;13.63;;;5.85;;
35675;SDS011;21790;42.668;23.298;2022-07-23T07:02:34;14.02;;;6.00;;
35675;SDS011;21790;42.668;23.298;2022-07-23T07:05:05;9.05;;;6.00;;
35675;SDS011;21790;42.668;23.298;2022-07-23T07:07:31;17.35;;;5.97;;
35675;SDS011;21790;42.668;23.298;2022-07-23T07:09:58;12.43;;;6.10;;
35675;SDS011;21790;42.668;23.298;2022-07-23T07:14:52;14.30;;;6.63;;
35675;SDS011;21790;42.668;23.298;2022-07-23T07:17:18;13.70;;;6.07;;
35675;SDS011;21790;42.668;23.298;2022-07-23T07:19:44;7.63;;;5.57;;
35675;SDS011;21790;42.668;23.298;2022-07-23T07:22:10;16.02;;;6.18;;
35675;SDS011;21790;42.668;23.298;2022-07-23T07:24:38;7.03;;;5.25;;
35675;SDS011;21790;42.668;23.298;2022-07-23T07:27:03;15.23;;;6.78;;
35675;SDS011;21790;42.668;23.298;2022-07-23T07:29:29;9.80;;;5.75;;
35675;SDS011;21790;42.668;23.298;2022-07-23T07:31:55;20.25;;;6.53;;
35675;SDS011;21790;42.668;23.298;2022-07-23T07:34:21;11.15;;;5.82;;
35675;SDS011;21790;42.668;23.298;2022-07-23T07:36:47;11.80;;;6.00;;
35675;SDS011;21790;42.668;23.298;2022-07-23T07:39:13;15.02;;;5.93;;
35675;SDS011;21790;42.668;23.298;2022-07-23T07:41:39;13.38;;;6.13;;
35675;SDS011;21790;42.668;23.298;2022-07-23T07:44:05;16.75;;;6.05;;
35675;SDS011;21790;42.668;23.298;2022-07-23T07:46:30;11.05;;;6.18;;
35675;SDS011;21790;42.668;23.298;2022-07-23T07:48:56;16.13;;;5.72;;
35675;SDS011;21790;42.668;23.298;2022-07-23T07:51:21;12.48;;;5.45;;
35675;SDS011;21790;42.668;23.298;2022-07-23T07:53:49;15.52;;;5.93;;
35675;SDS011;21790;42.668;23.298;2022-07-23T07:56:14;11.93;;;5.63;;
35675;SDS011;21790;42.668;23.298;2022-07-23T07:58:42;10.57;;;5.78;;
35675;SDS011;21790;42.668;23.298;2022-07-23T08:01:07;14.50;;;6.57;;
35675;SDS011;21790;42.668;23.298;2022-07-23T08:03:33;10.27;;;5.85;;
35675;SDS011;21790;42.668;23.298;2022-07-23T08:05:59;8.77;;;5.22;;
35675;SDS011;21790;42.668;23.298;2022-07-23T08:08:24;9.13;;;5.63;;
35675;SDS011;21790;42.668;23.298;2022-07-23T08:10:50;10.98;;;5.55;;
35675;SDS011;21790;42.668;23.298;2022-07-23T08:13:16;14.40;;;5.75;;
35675;SDS011;21790;42.668;23.298;2022-07-23T08:15:42;12.30;;;5.65;;
35675;SDS011;21790;42.668;23.298;2022-07-23T08:18:08;7.85;;;5.60;;
35675;SDS011;21790;42.668;23.298;2022-07-23T08:20:34;10.18;;;5.32;;
35675;SDS011;21790;42.668;23.298;2022-07-23T08:23:03;11.90;;;5.47;;
35675;SDS011;21790;42.668;23.298;2022-07-23T08:25:31;12.73;;;5.45;;
35675;SDS011;21790;42.668;23.298;2022-07-23T08:27:59;14.82;;;5.95;;
35675;SDS011;21790;42.668;23.298;2022-07-23T08:30:26;11.30;;;5.50;;
35675;SDS011;21790;42.668;23.298;2022-07-23T08:32:53;11.98;;;6.45;;
35675;SDS011;21790;42.668;23.298;2022-07-23T08:35:26;14.40;;;6.30;;
35675;SDS011;21790;42.668;23.298;2022-07-23T08:38:03;10.50;;;5.72;;
35675;SDS011;21790;42.668;23.298;2022-07-23T08:40:31;8.20;;;5.97;;
35675;SDS011;21790;42.668;23.298;2022-07-23T08:42:58;11.82;;;5.80;;
35675;SDS011;21790;42.668;23.298;2022-07-23T08:45:26;10.73;;;5.70;;
35675;SDS011;21790;42.668;23.298;2022-07-23T08:47:56;17.38;;;6.63;;
35675;SDS011;21790;42.668;23.298;2022-07-23T08:50:25;10.02;;;5.97;;
35675;SDS011;21790;42.668;23.298;2022-07-23T08:52:52;12.70;;;5.68;;
35675;SDS011;21790;42.668;23.298;2022-07-23T08:55:19;12.07;;;5.80;;
35675;SDS011;21790;42.668;23.298;2022-07-23T08:57:47;14.50;;;5.97;;
35675;SDS011;21790;42.668;23.298;2022-07-23T09:00:16;11.23;;;4.80;;
35675;SDS011;21790;42.668;23.298;2022-07-23T09:02:43;13.02;;;5.60;;
35675;SDS011;21790;42.668;23.298;2022-07-23T09:05:11;10.57;;;5.47;;
35675;SDS011;21790;42.668;23.298;2022-07-23T09:15:54;10.52;;;5.13;;
35675;SDS011;21790;42.668;23.298;2022-07-23T09:18:31;13.93;;;5.32;;
35675;SDS011;21790;42.668;23.298;2022-07-23T09:29:08;10.77;;;5.80;;
35675;SDS011;21790;42.668;23.298;2022-07-23T09:31:44;14.52;;;5.75;;
35675;SDS011;21790;42.668;23.298;2022-07-23T09:36:40;11.82;;;5.32;;
35675;SDS011;21790;42.668;23.298;2022-07-23T09:39:06;10.65;;;6.20;;
35675;SDS011;21790;42.668;23.298;2022-07-23T09:41:37;16.63;;;5.40;;
35675;SDS011;21790;42.668;23.298;2022-07-23T09:44:16;12.82;;;5.57;;
35675;SDS011;21790;42.668;23.298;2022-07-23T09:46:44;10.15;;;5.38;;
35675;SDS011;21790;42.668;23.298;2022-07-23T09:49:22;10.07;;;5.22;;
35675;SDS011;21790;42.668;23.298;2022-07-23T09:54:30;11.35;;;4.97;;
35675;SDS011;21790;42.668;23.298;2022-07-23T09:57:06;10.65;;;4.95;;
35675;SDS011;21790;42.668;23.298;2022-07-23T09:59:38;7.72;;;4.40;;
35675;SDS011;21790;42.668;23.298;2022-07-23T10:02:06;9.70;;;4.97;;
35675;SDS011;21790;42.668;23.298;2022-07-23T10:04:34;11.15;;;4.43;;
35675;SDS011;21790;42.668;23.298;2022-07-23T10:07:01;7.18;;;4.72;;
35675;SDS011;21790;42.668;23.298;2022-07-23T10:09:38;15.13;;;5.22;;
35675;SDS011;21790;42.668;23.298;2022-07-23T10:12:09;11.68;;;5.55;;
35675;SDS011;21790;42.668;23.298;2022-07-23T10:14:38;13.68;;;5.18;;
35675;SDS011;21790;42.668;23.298;2022-07-23T10:17:05;12.13;;;5.20;;
35675;SDS011;21790;42.668;23.298;2022-07-23T10:19:32;10.38;;;4.00;;
35675;SDS011;21790;42.668;23.298;2022-07-23T10:22:08;7.95;;;4.40;;
35675;SDS011;21790;42.668;23.298;2022-07-23T10:31:02;7.15;;;4.32;;
35675;SDS011;21790;42.668;23.298;2022-07-23T10:33:32;13.55;;;4.57;;
35675;SDS011;21790;42.668;23.298;2022-07-23T10:36:05;9.02;;;4.38;;
35675;SDS011;21790;42.668;23.298;2022-07-23T10:38:48;12.60;;;4.40;;
35675;SDS011;21790;42.668;23.298;2022-07-23T10:41:30;10.07;;;4.33;;
35675;SDS011;21790;42.668;23.298;2022-07-23T10:44:37;11.20;;;4.30;;
35675;SDS011;21790;42.668;23.298;2022-07-23T10:47:03;9.40;;;4.63;;
35675;SDS011;21790;42.668;23.298;2022-07-23T10:49:32;6.57;;;3.58;;
35675;SDS011;21790;42.668;23.298;2022-07-23T10:54:41;17.58;;;4.60;;
35675;SDS011;21790;42.668;23.298;2022-07-23T10:57:11;8.82;;;4.07;;
35675;SDS011;21790;42.668;23.298;2022-07-23T11:02:25;10.57;;;4.22;;
35675;SDS011;21790;42.668;23.298;2022-07-23T11:04:52;16.60;;;5.28;;
35675;SDS011;21790;42.668;23.298;2022-07-23T11:07:18;14.77;;;4.43;;
35675;SDS011;21790;42.668;23.298;2022-07-23T11:09:44;12.05;;;4.60;;
35675;SDS011;21790;42.668;23.298;2022-07-23T11:20:16;10.98;;;4.18;;
35675;SDS011;21790;42.668;23.298;2022-07-23T11:27:47;18.92;;;4.47;;
35675;SDS011;21790;42.668;23.298;2022-07-23T11:32:52;14.45;;;4.15;;
35675;SDS011;21790;42.668;23.298;2022-07-23T11:37:45;8.43;;;4.07;;
35675;SDS011;21790;42.668;23.298;2022-07-23T11:40:12;11.65;;;3.65;;
35675;SDS011;21790;42.668;23.298;2022-07-23T11:42:39;11.93;;;4.13;;
35675;SDS011;21790;42.668;23.298;2022-07-23T11:45:20;12.00;;;3.05;;
35675;SDS011;21790;42.668;23.298;2022-07-23T11:47:46;7.68;;;3.45;;
35675;SDS011;21790;42.668;23.298;2022-07-23T11:50:11;18.30;;;3.35;;
35675;SDS011;21790;42.668;23.298;2022-07-23T11:52:38;14.68;;;4.75;;
35675;SDS011;21790;42.668;23.298;2022-07-23T11:55:08;8.73;;;3.50;;
35675;SDS011;21790;42.668;23.298;2022-07-23T11:57:36;12.97;;;3.77;;
35675;SDS011;21790;42.668;23.298;2022-07-23T12:00:08;16.63;;;4.43;;
35675;SDS011;21790;42.668;23.298;2022-07-23T12:02:38;13.68;;;3.20;;
35675;SDS011;21790;42.668;23.298;2022-07-23T12:05:05;14.60;;;3.58;;
35675;SDS011;21790;42.668;23.298;2022-07-23T12:10:05;11.10;;;4.00;;
35675;SDS011;21790;42.668;23.298;2022-07-23T12:12:44;10.60;;;3.40;;
35675;SDS011;21790;42.668;23.298;2022-07-23T12:15:12;20.48;;;5.93;;
35675;SDS011;21790;42.668;23.298;2022-07-23T12:17:39;10.73;;;4.00;;
35675;SDS011;21790;42.668;23.298;2022-07-23T12:20:07;12.00;;;3.40;;
35675;SDS011;21790;42.668;23.298;2022-07-23T12:22:35;9.52;;;2.92;;
35675;SDS011;21790;42.668;23.298;2022-07-23T12:25:07;11.57;;;3.28;;
35675;SDS011;21790;42.668;23.298;2022-07-23T12:27:36;13.30;;;4.07;;
35675;SDS011;21790;42.668;23.298;2022-07-23T12:30:24;10.23;;;3.08;;
35675;SDS011;21790;42.668;23.298;2022-07-23T12:32:53;14.20;;;3.15;;
35675;SDS011;21790;42.668;23.298;2022-07-23T12:35:21;14.68;;;3.40;;
35675;SDS011;21790;42.668;23.298;2022-07-23T12:37:49;11.13;;;3.63;;
35675;SDS011;21790;42.668;23.298;2022-07-23T12:42:53;12.15;;;3.53;;
35675;SDS011;21790;42.668;23.298;2022-07-23T12:50:35;9.27;;;3.80;;
35675;SDS011;21790;42.668;23.298;2022-07-23T12:53:14;11.82;;;3.40;;
35675;SDS011;21790;42.668;23.298;2022-07-23T12:55:42;18.00;;;3.80;;
35675;SDS011;21790;42.668;23.298;2022-07-23T12:58:13;9.35;;;3.33;;
35675;SDS011;21790;42.668;23.298;2022-07-23T13:03:32;7.85;;;3.80;;
35675;SDS011;21790;42.668;23.298;2022-07-23T13:05:59;8.90;;;3.25;;
35675;SDS011;21790;42.668;23.298;2022-07-23T13:08:27;14.68;;;3.90;;
35675;SDS011;21790;42.668;23.298;2022-07-23T13:10:54;10.48;;;5.18;;
35675;SDS011;21790;42.668;23.298;2022-07-23T13:13:20;13.77;;;3.85;;
35675;SDS011;21790;42.668;23.298;2022-07-23T13:15:47;19.05;;;3.55;;
35675;SDS011;21790;42.668;23.298;2022-07-23T13:18:13;13.95;;;3.70;;
35675;SDS011;21790;42.668;23.298;2022-07-23T13:20:39;12.88;;;3.45;;
35675;SDS011;21790;42.668;23.298;2022-07-23T13:23:05;10.95;;;3.60;;
35675;SDS011;21790;42.668;23.298;2022-07-23T13:25:31;13.35;;;3.55;;
35675;SDS011;21790;42.668;23.298;2022-07-23T13:27:57;18.08;;;4.53;;
35675;SDS011;21790;42.668;23.298;2022-07-23T13:30:22;10.27;;;3.70;;
35675;SDS011;21790;42.668;23.298;2022-07-23T13:32:48;10.00;;;3.65;;
35675;SDS011;21790;42.668;23.298;2022-07-23T13:35:14;10.82;;;3.28;;
35675;SDS011;21790;42.668;23.298;2022-07-23T13:37:40;15.65;;;3.60;;
35675;SDS011;21790;42.668;23.298;2022-07-23T13:40:05;11.73;;;3.13;;
35675;SDS011;21790;42.668;23.298;2022-07-23T13:42:31;8.98;;;3.33;;
35675;SDS011;21790;42.668;23.298;2022-07-23T13:44:57;12.57;;;3.53;;
35675;SDS011;21790;42.668;23.298;2022-07-23T13:47:22;12.68;;;3.10;;
35675;SDS011;21790;42.668;23.298;2022-07-23T13:49:48;11.80;;;3.55;;
35675;SDS011;21790;42.668;23.298;2022-07-23T13:52:13;10.25;;;3.22;;
35675;SDS011;21790;42.668;23.298;2022-07-23T13:54:39;9.80;;;3.38;;
35675;SDS011;21790;42.668;23.298;2022-07-23T13:57:04;17.92;;;4.25;;
35675;SDS011;21790;42.668;23.298;2022-07-23T13:59:30;11.15;;;3.47;;
35675;SDS011;21790;42.668;23.298;2022-07-23T14:01:56;18.65;;;4.63;;
35675;SDS011;21790;42.668;23.298;2022-07-23T14:04:21;15.43;;;5.07;;
35675;SDS011;21790;42.668;23.298;2022-07-23T14:06:47;8.27;;;4.00;;
35675;SDS011;21790;42.668;23.298;2022-07-23T14:09:13;21.00;;;3.78;;
35675;SDS011;21790;42.668;23.298;2022-07-23T14:11:38;9.18;;;2.90;;
35675;SDS011;21790;42.668;23.298;2022-07-23T14:14:04;8.43;;;3.03;;
35675;SDS011;21790;42.668;23.298;2022-07-23T14:16:30;17.70;;;6.07;;
35675;SDS011;21790;42.668;23.298;2022-07-23T14:18:55;9.75;;;3.95;;
35675;SDS011;21790;42.668;23.298;2022-07-23T14:21:21;11.77;;;4.20;;
35675;SDS011;21790;42.668;23.298;2022-07-23T14:23:46;16.25;;;5.00;;
35675;SDS011;21790;42.668;23.298;2022-07-23T14:26:12;10.82;;;4.03;;
35675;SDS011;21790;42.668;23.298;2022-07-23T14:28:37;11.82;;;3.58;;
35675;SDS011;21790;42.668;23.298;2022-07-23T14:31:03;17.23;;;4.00;;
35675;SDS011;21790;42.668;23.298;2022-07-23T14:33:28;9.35;;;3.50;;
35675;SDS011;21790;42.668;23.298;2022-07-23T14:35:54;11.00;;;4.15;;
35675;SDS011;21790;42.668;23.298;2022-07-23T14:38:19;10.98;;;3.88;;
35675;SDS011;21790;42.668;23.298;2022-07-23T14:40:45;12.90;;;4.25;;
35675;SDS011;21790;42.668;23.298;2022-07-23T14:43:10;11.82;;;4.60;;
35675;SDS011;21790;42.668;23.298;2022-07-23T14:45:36;13.60;;;4.28;;
35675;SDS011;21790;42.668;23.298;2022-07-23T14:48:01;8.98;;;4.20;;
35675;SDS011;21790;42.668;23.298;2022-07-23T14:50:28;7.22;;;3.75;;
35675;SDS011;21790;42.668;23.298;2022-07-23T14:52:53;16.25;;;4.57;;
35675;SDS011;21790;42.668;23.298;2022-07-23T14:55:19;16.83;;;4.20;;
35675;SDS011;21790;42.668;23.298;2022-07-23T14:57:45;14.23;;;3.97;;
35675;SDS011;21790;42.668;23.298;2022-07-23T15:00:11;14.80;;;4.32;;
35675;SDS011;21790;42.668;23.298;2022-07-23T15:02:37;12.75;;;3.50;;
35675;SDS011;21790;42.668;23.298;2022-07-23T15:05:02;12.98;;;3.20;;
35675;SDS011;21790;42.668;23.298;2022-07-23T15:07:28;9.90;;;3.88;;
35675;SDS011;21790;42.668;23.298;2022-07-23T15:09:55;11.40;;;4.65;;
35675;SDS011;21790;42.668;23.298;2022-07-23T15:12:21;10.48;;;3.85;;
35675;SDS011;21790;42.668;23.298;2022-07-23T15:14:46;16.00;;;3.40;;
35675;SDS011;21790;42.668;23.298;2022-07-23T15:17:12;19.50;;;3.70;;
35675;SDS011;21790;42.668;23.298;2022-07-23T15:19:37;11.93;;;3.97;;
35675;SDS011;21790;42.668;23.298;2022-07-23T15:22:03;9.98;;;3.55;;
35675;SDS011;21790;42.668;23.298;2022-07-23T15:24:29;14.60;;;3.42;;
35675;SDS011;21790;42.668;23.298;2022-07-23T15:26:55;8.05;;;3.65;;
35675;SDS011;21790;42.668;23.298;2022-07-23T15:29:22;35.10;;;15.32;;
35675;SDS011;21790;42.668;23.298;2022-07-23T15:31:48;29.35;;;9.38;;
35675;SDS011;21790;42.668;23.298;2022-07-23T15:34:13;20.25;;;5.30;;
35675;SDS011;21790;42.668;23.298;2022-07-23T15:36:39;17.30;;;7.28;;
35675;SDS011;21790;42.668;23.298;2022-07-23T15:39:04;7.07;;;3.90;;
35675;SDS011;21790;42.668;23.298;2022-07-23T15:41:30;12.02;;;3.65;;
35675;SDS011;21790;42.668;23.298;2022-07-23T15:43:56;9.90;;;4.03;;
35675;SDS011;21790;42.668;23.298;2022-07-23T15:46:22;10.70;;;4.85;;
35675;SDS011;21790;42.668;23.298;2022-07-23T15:48:48;7.68;;;4.40;;
35675;SDS011;21790;42.668;23.298;2022-07-23T15:51:14;9.32;;;4.20;;
35675;SDS011;21790;42.668;23.298;2022-07-23T15:53:40;15.27;;;4.60;;
35675;SDS011;21790;42.668;23.298;2022-07-23T15:56:06;13.38;;;4.97;;